Time;durP1;ratioP1;P1;durP2;ratioP2;P2;SDS_P1;SDS_P2;PMS_P1;PMS_P2;Temp;Humidity;BMP_temperature;BMP_pressure;BME280_temperature;BME280_humidity;BME280_pressure;Samples;Min_cycle;Max_cycle;Signal;HPM_P1;HPM_P2
2022/08/27 00:01:50;;;;;;;16.70;6.80;;;;;;;22.85;94.66;99568.72;5033364;28;20119;-75
2022/08/27 00:04:18;;;;;;;15.52;6.93;;;;;;;22.83;96.07;99566.16;5033202;28;20406;-75
2022/08/27 00:06:46;;;;;;;13.13;5.97;;;;;;;22.88;97.31;99564.81;5015608;28;20049;-75
2022/08/27 00:09:14;;;;;;;13.60;6.22;;;;;;;22.72;100.00;99569.34;5033062;28;20045;-75
2022/08/27 00:11:53;;;;;;;13.95;6.18;;;;;;;22.63;100.00;99561.47;5033591;28;20041;-75
2022/08/27 00:14:21;;;;;;;13.63;6.35;;;;;;;22.64;100.00;99561.28;5033093;28;20049;-75
2022/08/27 00:16:49;;;;;;;11.98;5.88;;;;;;;22.61;100.00;99566.28;5033296;28;20045;-75
2022/08/27 00:19:18;;;;;;;15.70;6.30;;;;;;;22.50;100.00;99571.13;5032919;28;20049;-75
2022/08/27 00:21:47;;;;;;;13.30;6.68;;;;;;;22.46;100.00;99568.94;5033229;28;20052;-74
2022/08/27 00:24:15;;;;;;;12.57;6.38;;;;;;;22.48;100.00;99572.31;5032936;28;20045;-75
2022/08/27 00:26:44;;;;;;;13.27;6.80;;;;;;;22.50;100.00;99571.13;5033267;28;20041;-75
2022/08/27 00:29:13;;;;;;;14.70;6.35;;;;;;;22.56;100.00;99564.09;5032947;28;20048;-75
2022/08/27 00:31:42;;;;;;;12.55;6.50;;;;;;;22.87;100.00;99576.69;5032984;28;20125;-75
2022/08/27 00:34:10;;;;;;;11.82;6.18;;;;;;;22.84;100.00;99573.31;5033008;28;20482;-75
2022/08/27 00:36:40;;;;;;;11.85;5.95;;;;;;;22.54;100.00;99577.88;5033225;28;20045;-75
2022/08/27 00:39:09;;;;;;;12.75;6.60;;;;;;;22.65;100.00;99573.00;5032906;28;20478;-75
2022/08/27 00:41:38;;;;;;;12.82;6.38;;;;;;;22.58;100.00;99586.47;5032973;28;20049;-75
2022/08/27 00:44:07;;;;;;;15.38;6.80;;;;;;;22.34;100.00;99587.59;5032390;28;20084;-75
2022/08/27 00:46:39;;;;;;;14.85;7.00;;;;;;;22.38;100.00;99591.59;5032765;28;20092;-75
2022/08/27 00:49:11;;;;;;;14.65;6.13;;;;;;;22.18;100.00;99591.28;5032995;28;20076;-75
2022/08/27 00:51:40;;;;;;;12.02;6.90;;;;;;;22.22;100.00;99592.63;5033192;28;20046;-75
2022/08/27 00:54:09;;;;;;;14.77;6.88;;;;;;;22.24;100.00;99597.88;5032668;28;20048;-75
2022/08/27 00:56:44;;;;;;;16.08;6.93;;;;;;;22.21;100.00;99592.81;5032826;28;20445;-75
2022/08/27 00:59:21;;;;;;;15.50;7.15;;;;;;;22.08;100.00;99587.97;5015030;28;20100;-75
2022/08/27 01:04:40;;;;;;;17.80;6.93;;;;;;;22.06;100.00;99584.56;5032811;28;20475;-75
2022/08/27 01:07:10;;;;;;;14.40;7.30;;;;;;;22.04;100.00;99592.06;5032438;28;20045;-75
2022/08/27 01:09:39;;;;;;;16.20;6.78;;;;;;;22.00;100.00;99594.31;5033024;28;20058;-75
2022/08/27 01:12:10;;;;;;;16.35;6.82;;;;;;;21.99;100.00;99595.31;5032570;28;20124;-75
2022/08/27 01:14:38;;;;;;;16.55;7.32;;;;;;;21.95;100.00;99595.84;5032970;28;20055;-75
2022/08/27 01:17:09;;;;;;;15.52;6.80;;;;;;;22.08;100.00;99593.41;5032600;28;20045;-75
2022/08/27 01:19:41;;;;;;;14.10;6.43;;;;;;;21.96;100.00;99598.38;5032569;28;20373;-75
2022/08/27 01:22:17;;;;;;;13.05;6.70;;;;;;;21.83;100.00;99600.03;5032754;28;20037;-75
2022/08/27 01:24:54;;;;;;;14.70;6.70;;;;;;;21.82;100.00;99601.06;5032741;28;20084;-75
2022/08/27 01:27:26;;;;;;;12.35;6.70;;;;;;;21.72;100.00;99593.16;5032341;28;20465;-75
2022/08/27 01:29:55;;;;;;;13.65;6.80;;;;;;;21.71;100.00;99591.44;5032621;28;20041;-75
2022/08/27 01:32:26;;;;;;;15.23;6.82;;;;;;;21.71;100.00;99599.56;5032185;28;20132;-75
2022/08/27 01:34:55;;;;;;;12.65;6.50;;;;;;;21.71;100.00;99597.72;5032819;28;20051;-75
2022/08/27 01:37:25;;;;;;;14.60;6.43;;;;;;;21.85;100.00;99592.53;5014731;28;20050;-75
2022/08/27 01:39:57;;;;;;;15.40;7.18;;;;;;;21.70;100.00;99601.44;5032717;28;20068;-75
2022/08/27 01:42:30;;;;;;;13.30;7.03;;;;;;;21.62;100.00;99597.97;5032521;28;20522;-75
2022/08/27 01:45:01;;;;;;;12.87;6.70;;;;;;;21.80;100.00;99593.06;5032411;28;20057;-75
2022/08/27 01:47:34;;;;;;;9.45;5.97;;;;;;;21.98;100.00;99592.78;5033250;28;20048;-75
2022/08/27 01:50:04;;;;;;;14.02;6.28;;;;;;;21.87;100.00;99601.34;5035954;28;20049;-75
2022/08/27 01:52:32;;;;;;;16.25;6.53;;;;;;;21.77;100.00;99598.03;5035777;28;20132;-75
2022/08/27 01:55:02;;;;;;;14.77;6.35;;;;;;;21.67;100.00;99607.25;5035869;28;20045;-75
2022/08/27 01:57:31;;;;;;;11.77;6.07;;;;;;;21.62;100.00;99606.94;5035782;28;20045;-75
2022/08/27 01:59:59;;;;;;;12.00;6.40;;;;;;;21.50;100.00;99605.63;5035716;28;20050;-75
2022/08/27 02:02:27;;;;;;;15.30;6.50;;;;;;;21.35;100.00;99610.16;5035696;28;20048;-75
2022/08/27 02:04:55;;;;;;;12.20;6.45;;;;;;;21.26;100.00;99605.75;5035603;28;20045;-75
2022/08/27 02:07:24;;;;;;;17.35;6.90;;;;;;;21.55;100.00;99603.25;5035604;28;20045;-75
2022/08/27 02:09:52;;;;;;;15.55;6.35;;;;;;;21.58;100.00;99602.03;5035674;28;20505;-74
2022/08/27 02:12:21;;;;;;;13.82;6.85;;;;;;;21.37;100.00;99610.81;5035378;28;20101;-75
2022/08/27 02:14:51;;;;;;;13.07;6.38;;;;;;;21.46;100.00;99607.03;5035825;28;20069;-75
2022/08/27 02:17:19;;;;;;;14.00;6.32;;;;;;;21.40;100.00;99605.88;5035228;28;20380;-75
2022/08/27 02:19:47;;;;;;;11.98;6.50;;;;;;;21.31;100.00;99606.06;5035476;28;20122;-75
2022/08/27 02:22:15;;;;;;;10.52;6.30;;;;;;;21.34;100.00;99601.16;5035000;28;20045;-75
2022/08/27 02:24:43;;;;;;;13.68;6.65;;;;;;;21.31;100.00;99595.22;5035151;28;20065;-75
2022/08/27 02:27:12;;;;;;;12.50;6.80;;;;;;;21.30;100.00;99596.25;5034986;28;20418;-75
2022/08/27 02:29:42;;;;;;;15.27;6.70;;;;;;;21.32;100.00;99600.47;5035473;28;20049;-75
2022/08/27 02:32:14;;;;;;;12.90;6.32;;;;;;;21.32;100.00;99597.75;5035075;28;20045;-75
2022/08/27 02:34:56;;;;;;;13.90;7.05;;;;;;;21.08;100.00;99595.97;5035267;28;20069;-75
2022/08/27 02:37:25;;;;;;;15.15;6.75;;;;;;;21.18;100.00;99589.50;5034871;28;20045;-75
2022/08/27 02:39:53;;;;;;;12.18;6.82;;;;;;;21.11;100.00;99590.19;5034990;28;20048;-75
2022/08/27 02:42:21;;;;;;;17.67;6.55;;;;;;;21.11;100.00;99587.50;5035064;28;20043;-75
2022/08/27 02:44:51;;;;;;;16.83;7.10;;;;;;;21.05;100.00;99579.22;5034857;28;20415;-75
2022/08/27 02:47:19;;;;;;;14.52;6.45;;;;;;;21.03;100.00;99590.22;5034869;28;20046;-75
2022/08/27 02:49:47;;;;;;;11.52;6.68;;;;;;;21.06;100.00;99586.34;5035003;28;20056;-75
2022/08/27 02:52:16;;;;;;;15.63;6.53;;;;;;;21.12;100.00;99585.63;5034680;28;20550;-75
2022/08/27 02:54:52;;;;;;;18.67;7.15;;;;;;;21.11;100.00;99584.78;5034812;28;20046;-75
2022/08/27 02:57:21;;;;;;;14.63;6.70;;;;;;;21.04;100.00;99586.53;5034739;28;20114;-75
2022/08/27 02:59:52;;;;;;;14.07;6.72;;;;;;;20.92;100.00;99590.63;5015861;28;20076;-75
2022/08/27 03:02:21;;;;;;;13.25;6.82;;;;;;;20.81;100.00;99594.53;5034671;28;20065;-75
2022/08/27 03:04:52;;;;;;;15.68;6.80;;;;;;;20.75;100.00;99591.69;5034752;28;20045;-75
2022/08/27 03:07:23;;;;;;;12.05;6.47;;;;;;;20.81;100.00;99591.84;5034376;28;20056;-75
2022/08/27 03:09:51;;;;;;;14.82;6.47;;;;;;;20.72;100.00;99592.03;5034576;28;20124;-75
2022/08/27 03:12:19;;;;;;;10.25;6.22;;;;;;;20.99;100.00;99591.63;5034018;28;20041;-75
2022/08/27 03:14:51;;;;;;;12.88;5.88;;;;;;;21.05;100.00;99595.50;5034668;28;20095;-75
2022/08/27 03:20:06;;;;;;;16.50;6.95;;;;;;;20.83;100.00;99597.06;5034580;28;20392;-75
2022/08/27 03:22:34;;;;;;;12.95;6.03;;;;;;;20.84;100.00;99594.22;5034033;28;20042;-75
2022/08/27 03:25:03;;;;;;;12.73;6.05;;;;;;;20.83;100.00;99591.66;5034094;28;20046;-75
2022/08/27 03:27:32;;;;;;;13.65;6.75;;;;;;;20.83;100.00;99597.06;5033864;28;20046;-75
2022/08/27 03:30:04;;;;;;;15.88;6.30;;;;;;;20.79;100.00;99595.75;5034287;28;20076;-75
2022/08/27 03:32:32;;;;;;;13.88;6.57;;;;;;;20.76;100.00;99596.09;5033972;28;20049;-75
2022/08/27 03:35:00;;;;;;;13.55;6.60;;;;;;;20.58;100.00;99602.56;5034174;28;20049;-75
2022/08/27 03:37:28;;;;;;;12.60;6.45;;;;;;;20.53;100.00;99596.81;5033929;28;20125;-75
2022/08/27 03:39:57;;;;;;;13.57;6.32;;;;;;;20.58;100.00;99597.16;5034108;28;20042;-75
2022/08/27 03:42:25;;;;;;;11.60;6.80;;;;;;;20.64;100.00;99602.88;5033475;28;20045;-75
2022/08/27 03:44:53;;;;;;;13.25;6.70;;;;;;;20.73;100.00;99593.72;5033650;28;20107;-75
2022/08/27 03:47:23;;;;;;;16.77;6.90;;;;;;;20.68;100.00;99593.41;5033555;28;20121;-75
2022/08/27 03:49:51;;;;;;;13.73;6.28;;;;;;;20.58;100.00;99594.44;5034275;28;20049;-75
2022/08/27 03:52:19;;;;;;;13.45;6.32;;;;;;;20.53;100.00;99596.81;5033734;28;20471;-75
2022/08/27 03:54:47;;;;;;;11.82;6.32;;;;;;;20.40;100.00;99590.22;5033805;28;20464;-75
2022/08/27 03:57:16;;;;;;;19.08;6.72;;;;;;;20.50;100.00;99596.31;5033554;28;20128;-76
2022/08/27 03:59:44;;;;;;;11.98;6.22;;;;;;;20.58;100.00;99594.44;5033604;28;20115;-75
2022/08/27 04:02:12;;;;;;;11.23;6.22;;;;;;;20.62;100.00;99599.50;5033471;28;20041;-75
2022/08/27 04:04:43;;;;;;;11.20;6.05;;;;;;;20.68;100.00;99596.13;5033804;28;20045;-75
2022/08/27 04:07:11;;;;;;;15.05;6.35;;;;;;;20.53;100.00;99596.81;5033438;28;20095;-75
2022/08/27 04:09:39;;;;;;;11.80;5.75;;;;;;;20.51;100.00;99598.84;5033143;28;20052;-75
2022/08/27 04:12:07;;;;;;;10.18;6.03;;;;;;;20.64;100.00;99602.88;5033101;28;20045;-75
2022/08/27 04:14:36;;;;;;;13.98;6.20;;;;;;;20.77;100.00;99604.06;5033126;28;21011;-75
2022/08/27 04:17:04;;;;;;;12.80;6.60;;;;;;;20.71;100.00;99601.19;5033309;28;20068;-75
2022/08/27 04:19:33;;;;;;;18.17;6.25;;;;;;;20.76;100.00;99612.38;5033232;28;20486;-75
2022/08/27 04:22:04;;;;;;;11.48;5.90;;;;;;;20.69;100.00;99605.94;5033304;28;20053;-76
2022/08/27 04:24:35;;;;;;;13.32;6.13;;;;;;;20.88;100.00;99600.13;5032996;28;20053;-75
2022/08/27 04:27:04;;;;;;;11.63;5.72;;;;;;;20.90;100.00;99603.50;5033014;28;20045;-75
2022/08/27 04:29:32;;;;;;;11.38;5.35;;;;;;;20.98;100.00;99603.47;5032810;28;20060;-75
2022/08/27 04:32:01;;;;;;;12.57;6.30;;;;;;;20.98;100.00;99600.78;5033256;28;20120;-75
2022/08/27 04:34:30;;;;;;;13.32;5.60;;;;;;;21.26;100.00;99608.47;5033067;28;20383;-75
2022/08/27 04:36:59;;;;;;;13.48;5.53;;;;;;;21.23;100.00;99608.78;5033157;28;20041;-75
2022/08/27 04:39:29;;;;;;;15.02;5.75;;;;;;;21.32;100.00;99597.75;5032782;28;20046;-75
2022/08/27 04:41:59;;;;;;;14.23;5.78;;;;;;;21.28;100.00;99601.88;5033243;28;20120;-75
2022/08/27 04:44:31;;;;;;;10.75;5.80;;;;;;;21.19;100.00;99608.31;5032813;28;20486;-75
2022/08/27 04:47:01;;;;;;;9.25;6.03;;;;;;;21.27;100.00;99607.47;5033008;28;20065;-75
2022/08/27 04:49:30;;;;;;;10.75;5.97;;;;;;;21.23;100.00;99608.78;5032812;28;20405;-75
2022/08/27 04:52:01;;;;;;;10.55;5.50;;;;;;;21.44;100.00;99598.22;5032986;28;20037;-75
2022/08/27 04:54:31;;;;;;;14.30;5.47;;;;;;;21.51;100.00;99601.06;5015040;28;20061;-75
2022/08/27 04:57:01;;;;;;;14.38;5.95;;;;;;;21.47;100.00;99605.16;5032852;28;20081;-75
2022/08/27 04:59:31;;;;;;;13.23;5.75;;;;;;;21.37;100.00;99600.81;5032577;28;20049;-75
2022/08/27 05:02:00;;;;;;;12.75;5.78;;;;;;;21.59;100.00;99593.72;5033007;28;20041;-75
2022/08/27 05:04:32;;;;;;;13.45;5.90;;;;;;;21.82;100.00;99603.78;5014976;28;20057;-75
2022/08/27 05:07:00;;;;;;;14.60;5.57;;;;;;;21.93;100.00;99598.75;5014904;28;20115;-75
2022/08/27 05:09:29;;;;;;;10.18;5.35;;;;;;;21.86;100.00;99605.94;5032646;28;20458;-75
2022/08/27 05:11:58;;;;;;;13.25;4.93;;;;;;;21.98;100.00;99609.06;5014981;28;20406;-75
2022/08/27 05:14:28;;;;;;;13.05;5.47;;;;;;;22.24;100.00;99598.72;5032517;28;20052;-75
2022/08/27 05:16:57;;;;;;;16.08;5.53;;;;;;;22.23;100.00;99607.88;5032966;28;20105;-75
2022/08/27 05:19:26;;;;;;;12.98;5.53;;;;;;;22.24;100.00;99608.72;5032611;28;20482;-75
2022/08/27 05:21:54;;;;;;;14.82;5.55;;;;;;;22.31;100.00;99614.28;5032752;28;20103;-75
2022/08/27 05:24:23;;;;;;;11.50;5.50;;;;;;;22.47;100.00;99609.53;5018433;28;20132;-75
2022/08/27 05:26:51;;;;;;;14.77;4.90;;;;;;;22.76;100.00;99614.16;5018546;28;20045;-75
2022/08/27 05:29:21;;;;;;;13.48;5.32;;;;;;;22.90;100.00;99612.53;5036435;28;20120;-75
2022/08/27 05:31:49;;;;;;;12.70;5.70;;;;;;;22.94;100.00;99615.72;5036284;28;20073;-75
2022/08/27 05:34:17;;;;;;;12.77;5.50;;;;;;;23.14;98.49;99616.81;5036160;28;20050;-75
2022/08/27 05:36:52;;;;;;;13.13;5.45;;;;;;;23.26;96.84;99620.78;5036420;28;20419;-75
2022/08/27 05:39:20;;;;;;;12.85;5.45;;;;;;;22.93;98.02;99619.47;5036311;28;20113;-76
2022/08/27 05:41:48;;;;;;;12.48;5.50;;;;;;;23.27;93.55;99619.75;5036058;28;20095;-76
2022/08/27 05:44:17;;;;;;;19.92;6.13;;;;;;;23.48;91.79;99609.94;5035967;28;20048;-76
2022/08/27 05:47:06;;;;;;;12.48;5.40;;;;;;;23.63;87.37;99605.31;5016428;28;20502;-76
2022/08/27 05:49:34;;;;;;;12.50;5.05;;;;;;;24.10;83.81;99603.94;5016241;28;20050;-76
2022/08/27 05:52:03;;;;;;;14.60;5.30;;;;;;;24.08;83.62;99597.84;5016548;28;20046;-75
2022/08/27 05:54:33;;;;;;;13.68;5.50;;;;;;;23.99;83.16;99603.41;5016154;28;20049;-75
2022/08/27 05:57:01;;;;;;;12.85;5.43;;;;;;;24.21;79.87;99600.69;5016238;28;20048;-75
2022/08/27 06:02:19;;;;;;;11.13;5.15;;;;;;;25.00;74.04;99604.03;5016417;28;20076;-76
2022/08/27 06:04:48;;;;;;;11.68;4.70;;;;;;;25.47;70.32;99599.66;4998347;28;20093;-76
2022/08/27 06:07:16;;;;;;;15.38;4.90;;;;;;;25.95;65.91;99597.72;4998016;28;20097;-76
2022/08/27 06:09:44;;;;;;;13.93;4.90;;;;;;;26.32;63.33;99597.34;5015580;28;20406;-76
2022/08/27 06:12:12;;;;;;;13.32;5.05;;;;;;;26.30;63.39;99600.28;5015840;28;20049;-75
2022/08/27 06:14:41;;;;;;;12.38;4.38;;;;;;;26.47;62.65;99598.84;5015520;28;20053;-76
2022/08/27 06:17:09;;;;;;;9.18;5.53;;;;;;;26.88;59.94;99607.84;4998475;28;20415;-76
2022/08/27 06:19:41;;;;;;;16.95;5.10;;;;;;;26.93;59.02;99610.81;5015396;28;20046;-76
2022/08/27 06:22:09;;;;;;;16.60;5.03;;;;;;;27.24;57.71;99610.97;5016044;28;20042;-76
2022/08/27 06:24:39;;;;;;;9.35;5.18;;;;;;;27.74;55.65;99602.13;5015664;28;20525;-76
2022/08/27 06:27:10;;;;;;;13.07;4.85;;;;;;;27.75;55.64;99610.13;5015575;28;20435;-76
2022/08/27 06:29:39;;;;;;;16.45;5.15;;;;;;;27.77;54.57;99613.47;4997925;28;20410;-76
2022/08/27 06:32:08;;;;;;;8.95;4.50;;;;;;;28.50;52.09;99618.50;5015404;28;20046;-76
2022/08/27 06:34:38;;;;;;;11.35;4.50;;;;;;;28.34;51.71;99616.31;5014954;28;20052;-76
2022/08/27 06:37:08;;;;;;;9.70;4.57;;;;;;;28.78;50.77;99623.53;5015868;28;20042;-76
2022/08/27 06:39:38;;;;;;;14.27;5.00;;;;;;;29.22;47.95;99627.94;5015119;28;20046;-76
2022/08/27 06:42:10;;;;;;;13.23;4.55;;;;;;;29.29;47.31;99630.63;5015261;28;20140;-76
2022/08/27 06:44:38;;;;;;;11.35;4.72;;;;;;;29.45;46.58;99630.00;5015251;28;20053;-76
2022/08/27 06:47:06;;;;;;;9.05;4.53;;;;;;;29.28;46.69;99626.19;5015042;28;20046;-76
2022/08/27 06:49:34;;;;;;;10.77;4.70;;;;;;;27.91;50.58;99633.44;5014980;28;20038;-76
2022/08/27 06:52:04;;;;;;;12.15;4.30;;;;;;;27.63;50.56;99639.25;5015260;28;20403;-76
2022/08/27 06:54:33;;;;;;;17.08;4.85;;;;;;;27.36;52.11;99633.88;5014812;28;20486;-76
2022/08/27 06:57:01;;;;;;;12.18;5.18;;;;;;;26.61;56.66;99639.88;5014941;28;20041;-76
2022/08/27 06:59:30;;;;;;;11.20;4.65;;;;;;;26.89;55.52;99636.91;5014650;28;20042;-76
2022/08/27 07:01:58;;;;;;;14.73;5.13;;;;;;;26.56;55.33;99637.78;5014774;28;20073;-76
2022/08/27 07:04:26;;;;;;;12.48;4.78;;;;;;;26.75;55.00;99636.94;5014705;28;20103;-76
2022/08/27 07:07:01;;;;;;;14.73;4.47;;;;;;;27.05;54.41;99639.22;5014967;28;20046;-75
2022/08/27 07:09:34;;;;;;;12.52;4.80;;;;;;;26.91;55.26;99638.34;5014564;28;20042;-75
2022/08/27 07:12:02;;;;;;;10.50;5.00;;;;;;;27.18;54.71;99644.66;5014912;28;20546;-75
2022/08/27 07:14:31;;;;;;;10.40;4.65;;;;;;;27.26;53.76;99643.59;5014598;28;20462;-75
2022/08/27 07:17:07;;;;;;;12.13;4.97;;;;;;;27.44;50.98;99649.22;5014825;28;20073;-75
2022/08/27 07:19:38;;;;;;;8.25;4.43;;;;;;;27.63;49.13;99650.19;5014440;28;20466;-75
2022/08/27 07:22:08;;;;;;;9.63;4.22;;;;;;;27.56;49.25;99646.63;5014389;28;20042;-75
2022/08/27 07:24:37;;;;;;;16.80;5.07;;;;;;;27.65;50.17;99648.94;4996815;28;20042;-75
2022/08/27 07:27:06;;;;;;;11.27;4.40;;;;;;;27.71;49.27;99655.47;5014107;28;20557;-75
2022/08/27 07:29:35;;;;;;;8.00;4.13;;;;;;;27.80;48.45;99653.31;5014032;28;20056;-75
2022/08/27 07:32:03;;;;;;;11.10;4.38;;;;;;;27.75;48.78;99655.88;5014572;28;20042;-75
2022/08/27 07:34:32;;;;;;;12.07;4.32;;;;;;;27.87;47.44;99663.16;5013997;28;20045;-75
2022/08/27 07:37:00;;;;;;;11.40;4.10;;;;;;;27.81;46.91;99658.56;4996889;28;20077;-75
2022/08/27 07:39:28;;;;;;;12.20;4.50;;;;;;;27.69;48.13;99664.94;5014409;28;20069;-75
2022/08/27 07:44:43;;;;;;;9.45;4.28;;;;;;;27.60;48.25;99658.81;5016361;28;20486;-75
2022/08/27 07:47:12;;;;;;;12.82;5.00;;;;;;;27.42;49.26;99658.72;5016070;28;20107;-75
2022/08/27 07:49:40;;;;;;;9.07;4.30;;;;;;;27.48;49.33;99650.47;5016032;28;20054;-75
2022/08/27 07:52:08;;;;;;;10.85;4.93;;;;;;;27.42;48.62;99655.97;5033904;28;20041;-75
2022/08/27 07:54:36;;;;;;;10.35;4.70;;;;;;;27.42;47.80;99659.56;5033587;28;20045;-75
2022/08/27 07:57:06;;;;;;;10.70;4.43;;;;;;;27.52;47.58;99665.41;5033489;28;20111;-76
2022/08/27 07:59:34;;;;;;;16.38;4.65;;;;;;;27.42;48.61;99658.72;5033627;28;20048;-75
2022/08/27 08:02:03;;;;;;;9.43;4.35;;;;;;;27.59;48.44;99660.72;5033366;28;20076;-75
2022/08/27 08:04:31;;;;;;;8.95;4.50;;;;;;;27.75;47.68;99659.44;5033514;28;20394;-75
2022/08/27 08:07:00;;;;;;;10.65;4.47;;;;;;;27.59;48.13;99654.41;5015947;28;20136;-75
2022/08/27 08:09:29;;;;;;;12.93;4.47;;;;;;;27.66;47.91;99658.00;5033750;28;20406;-75
2022/08/27 08:11:57;;;;;;;11.35;4.60;;;;;;;27.80;47.18;99651.41;5033572;28;20046;-75
2022/08/27 08:14:27;;;;;;;8.18;4.50;;;;;;;27.58;48.02;99653.56;5033295;28;20103;-75
2022/08/27 08:16:59;;;;;;;14.23;5.03;;;;;;;27.60;48.30;99650.63;5015453;28;20080;-75
2022/08/27 08:19:27;;;;;;;9.80;4.65;;;;;;;27.43;48.72;99654.91;5015854;28;20045;-75
2022/08/27 08:21:59;;;;;;;10.55;4.60;;;;;;;27.60;49.47;99656.09;5033089;28;20045;-75
2022/08/27 08:24:33;;;;;;;8.23;4.50;;;;;;;27.88;46.51;99659.34;5032965;28;20107;-75
2022/08/27 08:27:01;;;;;;;9.20;4.60;;;;;;;27.79;47.97;99662.56;5033045;28;20052;-75
2022/08/27 08:29:39;;;;;;;11.05;4.60;;;;;;;27.51;49.01;99657.41;5033033;28;20052;-75
2022/08/27 08:32:08;;;;;;;9.73;4.30;;;;;;;27.69;49.21;99663.03;5015574;28;20053;-75
2022/08/27 08:34:36;;;;;;;8.10;4.50;;;;;;;27.72;48.76;99670.00;5032536;28;20083;-75
2022/08/27 08:37:06;;;;;;;10.48;4.53;;;;;;;27.70;48.97;99659.28;5032836;28;20053;-75
2022/08/27 08:39:36;;;;;;;13.43;5.03;;;;;;;27.75;48.59;99664.09;5032797;28;20054;-75
2022/08/27 08:42:07;;;;;;;11.05;4.70;;;;;;;27.67;47.81;99666.00;5032815;28;20049;-75
2022/08/27 08:44:41;;;;;;;14.38;4.60;;;;;;;27.84;48.09;99666.34;5032822;28;20076;-75
2022/08/27 08:47:14;;;;;;;6.93;4.20;;;;;;;27.92;46.09;99663.38;5032796;28;20442;-75
2022/08/27 08:49:49;;;;;;;11.25;4.30;;;;;;;27.97;47.55;99659.09;5032519;28;20493;-76
2022/08/27 08:52:32;;;;;;;9.80;4.60;;;;;;;28.06;44.80;99671.50;5032873;28;20478;-75
2022/08/27 08:55:09;;;;;;;13.10;4.85;;;;;;;28.05;46.14;99664.34;5033120;28;20045;-75
2022/08/27 08:57:45;;;;;;;7.40;4.20;;;;;;;27.91;46.15;99667.16;5033705;28;20401;-76
2022/08/27 09:00:16;;;;;;;9.93;4.25;;;;;;;28.24;44.34;99666.13;5036887;28;20042;-75
2022/08/27 09:02:49;;;;;;;8.15;4.00;;;;;;;28.16;41.87;99660.91;5019029;28;20053;-75
2022/08/27 09:05:17;;;;;;;8.80;4.25;;;;;;;28.30;39.89;99661.69;5037034;28;20045;-75
2022/08/27 09:07:55;;;;;;;8.85;4.20;;;;;;;28.20;41.80;99656.66;5018622;28;20133;-75
2022/08/27 09:10:47;;;;;;;5.88;3.67;;;;;;;28.14;41.06;99660.28;5036610;28;20042;-75
2022/08/27 09:13:22;;;;;;;7.72;4.13;;;;;;;28.21;40.48;99656.44;5036855;28;20068;-75
2022/08/27 09:15:56;;;;;;;11.75;4.15;;;;;;;28.48;38.57;99659.88;5018690;28;20079;-76
2022/08/27 09:18:25;;;;;;;11.55;4.05;;;;;;;28.53;40.21;99656.44;5036643;28;20049;-75
2022/08/27 09:21:06;;;;;;;9.60;4.10;;;;;;;28.44;42.48;99653.13;5036278;28;20053;-75
2022/08/27 09:23:46;;;;;;;8.82;4.15;;;;;;;28.63;42.02;99648.53;5036587;28;20077;-75
2022/08/27 09:26:27;;;;;;;10.23;4.22;;;;;;;29.07;40.67;99647.53;5036614;28;20041;-75
2022/08/27 09:29:18;;;;;;;10.38;4.10;;;;;;;28.93;40.70;99639.66;5036371;28;20133;-75
2022/08/27 09:31:54;;;;;;;9.75;4.32;;;;;;;29.06;40.36;99648.63;5018469;28;20107;-75
2022/08/27 09:34:23;;;;;;;9.60;4.15;;;;;;;29.14;41.27;99638.38;5036160;28;20482;-75
2022/08/27 09:37:04;;;;;;;9.00;4.25;;;;;;;29.27;41.39;99641.84;5036146;28;20052;-75
2022/08/27 09:39:42;;;;;;;12.45;4.13;;;;;;;29.26;40.76;99634.66;5036103;28;20046;-75
2022/08/27 09:42:25;;;;;;;7.72;4.00;;;;;;;29.45;39.43;99638.25;5018659;28;20060;-76
2022/08/27 09:44:54;;;;;;;6.97;3.80;;;;;;;29.49;38.85;99633.16;5035774;28;20049;-75
2022/08/27 09:47:24;;;;;;;8.15;3.72;;;;;;;29.64;38.12;99636.34;5036385;28;20046;-75
2022/08/27 09:50:05;;;;;;;12.02;3.85;;;;;;;29.75;37.53;99637.47;5017981;28;20073;-75
2022/08/27 09:52:37;;;;;;;9.80;3.88;;;;;;;29.75;37.88;99632.81;5036374;28;20044;-75
2022/08/27 09:55:06;;;;;;;9.02;3.55;;;;;;;29.64;36.48;99636.34;5036311;28;20041;-76
2022/08/27 09:57:38;;;;;;;9.50;3.65;;;;;;;29.43;36.85;99634.88;5018139;28;20133;-75
2022/08/27 10:00:13;;;;;;;10.40;3.77;;;;;;;29.54;36.22;99634.16;5035746;28;20069;-75
2022/08/27 10:02:51;;;;;;;7.93;3.60;;;;;;;29.75;35.72;99631.97;5035292;28;20049;-75
2022/08/27 10:05:28;;;;;;;6.88;3.30;;;;;;;29.77;35.64;99627.09;5018256;28;20084;-75
2022/08/27 10:08:01;;;;;;;11.50;3.65;;;;;;;29.80;35.71;99634.84;5017379;28;20168;-75
2022/08/27 10:10:44;;;;;;;10.73;3.63;;;;;;;29.93;35.70;99637.44;5018190;28;20053;-75
2022/08/27 10:13:18;;;;;;;10.10;4.00;;;;;;;30.04;35.57;99625.66;5035876;28;20077;-75
2022/08/27 10:16:08;;;;;;;7.80;3.38;;;;;;;30.22;34.91;99627.53;5035698;28;20045;-75
2022/08/27 10:18:48;;;;;;;9.00;3.42;;;;;;;30.31;34.79;99631.63;5017995;28;20060;-75
2022/08/27 10:21:23;;;;;;;7.00;3.20;;;;;;;30.49;33.15;99623.25;5017648;28;20053;-76
2022/08/27 10:24:05;;;;;;;8.73;3.38;;;;;;;30.38;33.53;99628.75;5035303;28;20125;-75
2022/08/27 10:26:42;;;;;;;10.95;3.60;;;;;;;30.33;32.78;99628.63;5035675;28;20068;-75
2022/08/27 10:29:20;;;;;;;8.60;3.33;;;;;;;30.36;32.95;99630.91;5035477;28;20475;-75
2022/08/27 10:32:09;;;;;;;9.27;3.63;;;;;;;30.41;32.00;99636.53;5017262;28;20073;-75
2022/08/27 10:34:52;;;;;;;9.27;3.47;;;;;;;30.38;32.16;99634.25;5017586;28;20092;-75
2022/08/27 10:37:29;;;;;;;6.85;3.22;;;;;;;30.40;31.85;99623.84;5035504;28;20055;-75
2022/08/27 10:40:14;;;;;;;9.00;3.42;;;;;;;30.23;31.86;99628.38;5017198;28;20568;-75
2022/08/27 10:42:51;;;;;;;8.00;3.25;;;;;;;30.29;32.51;99628.25;5017474;28;20050;-76
2022/08/27 10:45:40;;;;;;;10.83;3.17;;;;;;;30.41;31.48;99628.28;5034936;28;20057;-75
2022/08/27 10:48:23;;;;;;;7.40;3.05;;;;;;;30.08;31.80;99631.53;5034893;28;20049;-76
2022/08/27 10:51:00;;;;;;;5.28;3.10;;;;;;;30.07;31.61;99625.19;5034898;28;20053;-76
2022/08/27 10:53:36;;;;;;;7.07;3.00;;;;;;;30.31;30.88;99625.28;5034639;28;20077;-75
2022/08/27 10:56:18;;;;;;;6.50;2.92;;;;;;;30.50;30.21;99618.63;5016869;28;20056;-76
2022/08/27 10:58:56;;;;;;;7.22;2.90;;;;;;;30.53;30.01;99623.63;5034373;28;20049;-76
2022/08/27 11:01:34;;;;;;;11.45;3.08;;;;;;;30.41;29.39;99620.88;5034849;28;20092;-75
2022/08/27 11:04:06;;;;;;;6.82;2.65;;;;;;;30.44;30.17;99616.81;5044523;28;20041;-75
2022/08/27 11:06:39;;;;;;;14.13;3.00;;;;;;;30.56;30.26;99617.63;5039606;28;20041;-76
2022/08/27 11:09:15;;;;;;;8.30;2.90;;;;;;;30.71;28.04;99615.31;5017221;28;20046;-76
2022/08/27 11:11:48;;;;;;;11.48;2.70;;;;;;;30.42;28.14;99616.19;5034140;28;20457;-76
2022/08/27 11:14:43;;;;;;;9.88;2.80;;;;;;;30.59;28.55;99611.66;5034324;28;20069;-75
2022/08/27 11:17:16;;;;;;;11.45;3.20;;;;;;;30.75;27.43;99610.97;5034386;28;20049;-75
2022/08/27 11:19:52;;;;;;;8.02;2.90;;;;;;;30.73;28.55;99607.63;5015596;28;20084;-75
2022/08/27 11:22:30;;;;;;;8.40;2.92;;;;;;;30.69;29.81;99609.22;5034521;28;20045;-76
2022/08/27 11:25:06;;;;;;;12.52;3.10;;;;;;;30.78;28.51;99607.75;5034419;28;20044;-76
2022/08/27 11:27:36;;;;;;;7.15;2.88;;;;;;;30.76;28.55;99614.56;5034266;28;20124;-75
2022/08/27 11:30:07;;;;;;;7.28;3.08;;;;;;;30.81;28.58;99608.38;5016081;28;20052;-75
2022/08/27 11:32:49;;;;;;;10.15;2.95;;;;;;;31.10;27.38;99607.38;5034460;28;20049;-75
2022/08/27 11:35:22;;;;;;;9.02;2.75;;;;;;;31.09;27.43;99605.72;5034234;28;20037;-75
2022/08/27 11:38:16;;;;;;;7.18;2.83;;;;;;;31.03;27.78;99601.16;5033579;28;20103;-75
2022/08/27 11:40:59;;;;;;;11.05;3.25;;;;;;;30.91;28.36;99603.94;5033770;28;20059;-75
2022/08/27 11:43:28;;;;;;;;;;;;;;;31.10;28.95;99599.13;5016782;28;20125;-75
2022/08/27 11:46:00;;;;;;;9.13;2.83;;;;;;;31.11;28.60;99598.03;5023146;28;19928;-75
2022/08/27 11:48:30;;;;;;;9.73;3.38;;;;;;;31.10;29.70;99596.38;5033875;28;20045;-75
2022/08/27 11:51:02;;;;;;;7.40;2.83;;;;;;;31.19;29.21;99596.84;5033406;28;20405;-75
2022/08/27 11:53:34;;;;;;;8.77;3.33;;;;;;;31.22;28.99;99583.44;5032612;28;20529;-75
2022/08/27 11:56:35;;;;;;;9.07;3.10;;;;;;;31.22;28.92;99583.44;5033956;28;20228;-75